sensor_id;sensor_type;location;lat;lon;timestamp;P1;durP1;ratioP1;P2;durP2;ratioP2
71152;SDS011;58822;51.438;5.436;2022-07-18T00:00:57;7.30;;;2.05;;
71152;SDS011;58822;51.438;5.436;2022-07-18T00:03:22;4.30;;;2.13;;
71152;SDS011;58822;51.438;5.436;2022-07-18T00:05:48;6.85;;;2.60;;
71152;SDS011;58822;51.438;5.436;2022-07-18T00:08:13;7.78;;;2.40;;
71152;SDS011;58822;51.438;5.436;2022-07-18T00:10:39;6.85;;;2.35;;
71152;SDS011;58822;51.438;5.436;2022-07-18T00:13:04;9.30;;;2.50;;
71152;SDS011;58822;51.438;5.436;2022-07-18T00:15:29;5.50;;;2.53;;
71152;SDS011;58822;51.438;5.436;2022-07-18T00:17:55;6.63;;;2.70;;
71152;SDS011;58822;51.438;5.436;2022-07-18T00:20:20;6.03;;;2.70;;
71152;SDS011;58822;51.438;5.436;2022-07-18T00:22:46;8.65;;;2.50;;
71152;SDS011;58822;51.438;5.436;2022-07-18T00:25:11;7.03;;;2.63;;
71152;SDS011;58822;51.438;5.436;2022-07-18T00:27:37;6.85;;;2.78;;
71152;SDS011;58822;51.438;5.436;2022-07-18T00:30:03;9.60;;;2.72;;
71152;SDS011;58822;51.438;5.436;2022-07-18T00:32:33;7.32;;;2.50;;
71152;SDS011;58822;51.438;5.436;2022-07-18T00:35:01;5.57;;;2.70;;
71152;SDS011;58822;51.438;5.436;2022-07-18T00:37:26;6.13;;;2.50;;
71152;SDS011;58822;51.438;5.436;2022-07-18T00:39:51;5.57;;;2.33;;
71152;SDS011;58822;51.438;5.436;2022-07-18T00:42:17;9.30;;;2.47;;
71152;SDS011;58822;51.438;5.436;2022-07-18T00:44:42;6.38;;;2.15;;
71152;SDS011;58822;51.438;5.436;2022-07-18T00:47:08;6.95;;;2.33;;
71152;SDS011;58822;51.438;5.436;2022-07-18T00:49:33;9.77;;;2.22;;
71152;SDS011;58822;51.438;5.436;2022-07-18T00:52:06;6.20;;;2.08;;
71152;SDS011;58822;51.438;5.436;2022-07-18T00:54:31;4.45;;;2.00;;
71152;SDS011;58822;51.438;5.436;2022-07-18T00:56:57;5.05;;;2.35;;
71152;SDS011;58822;51.438;5.436;2022-07-18T00:59:23;4.85;;;2.47;;
71152;SDS011;58822;51.438;5.436;2022-07-18T01:02:09;10.93;;;2.63;;
71152;SDS011;58822;51.438;5.436;2022-07-18T01:04:35;4.32;;;2.53;;
71152;SDS011;58822;51.438;5.436;2022-07-18T01:07:03;10.90;;;2.58;;
71152;SDS011;58822;51.438;5.436;2022-07-18T01:09:28;7.47;;;2.60;;
71152;SDS011;58822;51.438;5.436;2022-07-18T01:11:54;4.72;;;2.25;;
71152;SDS011;58822;51.438;5.436;2022-07-18T01:14:19;7.28;;;2.30;;
71152;SDS011;58822;51.438;5.436;2022-07-18T01:16:45;6.65;;;2.42;;
71152;SDS011;58822;51.438;5.436;2022-07-18T01:19:10;5.53;;;2.30;;
71152;SDS011;58822;51.438;5.436;2022-07-18T01:21:36;8.90;;;2.42;;
71152;SDS011;58822;51.438;5.436;2022-07-18T01:24:02;4.40;;;2.30;;
71152;SDS011;58822;51.438;5.436;2022-07-18T01:26:28;5.65;;;2.10;;
71152;SDS011;58822;51.438;5.436;2022-07-18T01:28:53;6.13;;;2.50;;
71152;SDS011;58822;51.438;5.436;2022-07-18T01:31:19;7.20;;;2.58;;
71152;SDS011;58822;51.438;5.436;2022-07-18T01:33:44;9.20;;;2.42;;
71152;SDS011;58822;51.438;5.436;2022-07-18T01:36:10;3.83;;;2.10;;
71152;SDS011;58822;51.438;5.436;2022-07-18T01:38:35;8.45;;;2.80;;
71152;SDS011;58822;51.438;5.436;2022-07-18T01:41:02;5.30;;;2.28;;
71152;SDS011;58822;51.438;5.436;2022-07-18T01:43:28;8.25;;;2.60;;
71152;SDS011;58822;51.438;5.436;2022-07-18T01:45:54;7.47;;;2.72;;
71152;SDS011;58822;51.438;5.436;2022-07-18T01:48:20;6.45;;;2.40;;
71152;SDS011;58822;51.438;5.436;2022-07-18T01:50:47;9.20;;;2.78;;
71152;SDS011;58822;51.438;5.436;2022-07-18T01:53:20;4.35;;;2.60;;
71152;SDS011;58822;51.438;5.436;2022-07-18T01:55:46;7.05;;;2.47;;
71152;SDS011;58822;51.438;5.436;2022-07-18T01:58:12;6.97;;;2.60;;
71152;SDS011;58822;51.438;5.436;2022-07-18T02:00:37;4.63;;;2.63;;
71152;SDS011;58822;51.438;5.436;2022-07-18T02:03:03;4.63;;;2.50;;
71152;SDS011;58822;51.438;5.436;2022-07-18T02:05:28;6.60;;;2.88;;
71152;SDS011;58822;51.438;5.436;2022-07-18T02:07:53;9.95;;;2.90;;
71152;SDS011;58822;51.438;5.436;2022-07-18T02:10:20;9.00;;;2.33;;
71152;SDS011;58822;51.438;5.436;2022-07-18T02:12:46;5.60;;;2.70;;
71152;SDS011;58822;51.438;5.436;2022-07-18T02:15:12;6.50;;;2.70;;
71152;SDS011;58822;51.438;5.436;2022-07-18T02:17:39;6.40;;;2.20;;
71152;SDS011;58822;51.438;5.436;2022-07-18T02:20:05;8.82;;;2.58;;
71152;SDS011;58822;51.438;5.436;2022-07-18T02:22:33;6.65;;;2.75;;
71152;SDS011;58822;51.438;5.436;2022-07-18T02:24:58;6.40;;;2.67;;
71152;SDS011;58822;51.438;5.436;2022-07-18T02:27:24;6.53;;;2.55;;
71152;SDS011;58822;51.438;5.436;2022-07-18T02:29:49;6.63;;;3.08;;
71152;SDS011;58822;51.438;5.436;2022-07-18T02:32:16;5.05;;;2.40;;
71152;SDS011;58822;51.438;5.436;2022-07-18T02:34:42;11.70;;;2.90;;
71152;SDS011;58822;51.438;5.436;2022-07-18T02:37:07;11.63;;;3.03;;
71152;SDS011;58822;51.438;5.436;2022-07-18T02:39:33;9.18;;;2.65;;
71152;SDS011;58822;51.438;5.436;2022-07-18T02:41:59;8.27;;;2.70;;
71152;SDS011;58822;51.438;5.436;2022-07-18T02:44:24;9.05;;;3.10;;
71152;SDS011;58822;51.438;5.436;2022-07-18T02:46:50;7.30;;;2.88;;
71152;SDS011;58822;51.438;5.436;2022-07-18T02:49:15;6.20;;;2.63;;
71152;SDS011;58822;51.438;5.436;2022-07-18T02:52:00;10.20;;;2.80;;
71152;SDS011;58822;51.438;5.436;2022-07-18T02:54:28;9.10;;;2.88;;
71152;SDS011;58822;51.438;5.436;2022-07-18T02:56:54;8.98;;;3.00;;
71152;SDS011;58822;51.438;5.436;2022-07-18T02:59:23;7.40;;;2.90;;
71152;SDS011;58822;51.438;5.436;2022-07-18T03:01:50;8.25;;;2.72;;
71152;SDS011;58822;51.438;5.436;2022-07-18T03:04:16;8.18;;;2.90;;
71152;SDS011;58822;51.438;5.436;2022-07-18T03:06:42;5.53;;;2.70;;
71152;SDS011;58822;51.438;5.436;2022-07-18T03:09:07;9.77;;;2.75;;
71152;SDS011;58822;51.438;5.436;2022-07-18T03:11:33;9.35;;;3.15;;
71152;SDS011;58822;51.438;5.436;2022-07-18T03:13:58;12.93;;;2.92;;
71152;SDS011;58822;51.438;5.436;2022-07-18T03:16:24;10.50;;;2.80;;
71152;SDS011;58822;51.438;5.436;2022-07-18T03:18:49;5.63;;;2.83;;
71152;SDS011;58822;51.438;5.436;2022-07-18T03:21:14;8.25;;;2.92;;
71152;SDS011;58822;51.438;5.436;2022-07-18T03:23:40;7.53;;;3.20;;
71152;SDS011;58822;51.438;5.436;2022-07-18T03:26:05;7.97;;;3.17;;
71152;SDS011;58822;51.438;5.436;2022-07-18T03:28:31;12.77;;;3.47;;
71152;SDS011;58822;51.438;5.436;2022-07-18T03:30:56;5.22;;;2.90;;
71152;SDS011;58822;51.438;5.436;2022-07-18T03:33:24;6.95;;;2.97;;
71152;SDS011;58822;51.438;5.436;2022-07-18T03:35:52;17.52;;;3.00;;
71152;SDS011;58822;51.438;5.436;2022-07-18T03:38:17;7.13;;;3.00;;
71152;SDS011;58822;51.438;5.436;2022-07-18T03:40:43;8.15;;;3.05;;
71152;SDS011;58822;51.438;5.436;2022-07-18T03:43:08;13.70;;;3.33;;
71152;SDS011;58822;51.438;5.436;2022-07-18T03:45:33;10.45;;;3.40;;
71152;SDS011;58822;51.438;5.436;2022-07-18T03:47:59;5.80;;;2.63;;
71152;SDS011;58822;51.438;5.436;2022-07-18T03:50:24;10.40;;;2.80;;
71152;SDS011;58822;51.438;5.436;2022-07-18T03:52:50;10.60;;;3.28;;
71152;SDS011;58822;51.438;5.436;2022-07-18T03:55:15;6.25;;;3.03;;
71152;SDS011;58822;51.438;5.436;2022-07-18T03:57:41;8.43;;;3.05;;
71152;SDS011;58822;51.438;5.436;2022-07-18T04:00:07;7.18;;;3.30;;
71152;SDS011;58822;51.438;5.436;2022-07-18T04:02:37;8.07;;;3.03;;
71152;SDS011;58822;51.438;5.436;2022-07-18T04:05:07;11.00;;;3.20;;
71152;SDS011;58822;51.438;5.436;2022-07-18T04:07:33;8.65;;;3.38;;
71152;SDS011;58822;51.438;5.436;2022-07-18T04:09:58;14.05;;;3.80;;
71152;SDS011;58822;51.438;5.436;2022-07-18T04:12:24;13.45;;;2.88;;
71152;SDS011;58822;51.438;5.436;2022-07-18T04:14:49;10.13;;;3.33;;
71152;SDS011;58822;51.438;5.436;2022-07-18T04:17:15;7.05;;;3.00;;
71152;SDS011;58822;51.438;5.436;2022-07-18T04:19:40;8.63;;;3.70;;
71152;SDS011;58822;51.438;5.436;2022-07-18T04:22:06;7.88;;;3.53;;
71152;SDS011;58822;51.438;5.436;2022-07-18T04:24:31;6.47;;;3.17;;
71152;SDS011;58822;51.438;5.436;2022-07-18T04:26:56;8.95;;;3.40;;
71152;SDS011;58822;51.438;5.436;2022-07-18T04:29:22;6.75;;;3.10;;
71152;SDS011;58822;51.438;5.436;2022-07-18T04:31:47;7.78;;;3.22;;
71152;SDS011;58822;51.438;5.436;2022-07-18T04:34:13;10.05;;;4.03;;
71152;SDS011;58822;51.438;5.436;2022-07-18T04:36:38;19.40;;;3.67;;
71152;SDS011;58822;51.438;5.436;2022-07-18T04:39:03;23.48;;;4.25;;
71152;SDS011;58822;51.438;5.436;2022-07-18T04:41:29;8.50;;;3.20;;
71152;SDS011;58822;51.438;5.436;2022-07-18T04:43:54;11.52;;;3.67;;
71152;SDS011;58822;51.438;5.436;2022-07-18T04:46:20;8.60;;;3.50;;
71152;SDS011;58822;51.438;5.436;2022-07-18T04:48:45;10.45;;;3.65;;
71152;SDS011;58822;51.438;5.436;2022-07-18T04:51:11;27.70;;;4.18;;
71152;SDS011;58822;51.438;5.436;2022-07-18T04:53:36;17.27;;;5.22;;
71152;SDS011;58822;51.438;5.436;2022-07-18T04:56:02;11.90;;;3.95;;
71152;SDS011;58822;51.438;5.436;2022-07-18T04:58:27;15.68;;;4.30;;
71152;SDS011;58822;51.438;5.436;2022-07-18T05:00:53;8.27;;;3.53;;
71152;SDS011;58822;51.438;5.436;2022-07-18T05:03:25;12.57;;;3.80;;
71152;SDS011;58822;51.438;5.436;2022-07-18T05:05:50;9.15;;;4.07;;
71152;SDS011;58822;51.438;5.436;2022-07-18T05:08:16;11.25;;;4.85;;
71152;SDS011;58822;51.438;5.436;2022-07-18T05:10:41;18.77;;;4.07;;
71152;SDS011;58822;51.438;5.436;2022-07-18T05:13:06;9.70;;;3.75;;
71152;SDS011;58822;51.438;5.436;2022-07-18T05:15:32;13.52;;;4.32;;
71152;SDS011;58822;51.438;5.436;2022-07-18T05:17:57;20.08;;;4.50;;
71152;SDS011;58822;51.438;5.436;2022-07-18T05:20:24;14.13;;;4.43;;
71152;SDS011;58822;51.438;5.436;2022-07-18T05:22:51;19.15;;;4.22;;
71152;SDS011;58822;51.438;5.436;2022-07-18T05:25:17;11.05;;;4.57;;
71152;SDS011;58822;51.438;5.436;2022-07-18T05:27:43;14.85;;;4.45;;
71152;SDS011;58822;51.438;5.436;2022-07-18T05:30:12;19.10;;;5.07;;
71152;SDS011;58822;51.438;5.436;2022-07-18T05:32:39;17.25;;;5.90;;
71152;SDS011;58822;51.438;5.436;2022-07-18T05:35:06;25.73;;;6.40;;
71152;SDS011;58822;51.438;5.436;2022-07-18T05:37:32;18.83;;;7.10;;
71152;SDS011;58822;51.438;5.436;2022-07-18T05:40:00;15.73;;;7.03;;
71152;SDS011;58822;51.438;5.436;2022-07-18T05:42:26;24.15;;;9.23;;
71152;SDS011;58822;51.438;5.436;2022-07-18T05:44:51;23.38;;;9.27;;
71152;SDS011;58822;51.438;5.436;2022-07-18T05:47:16;22.80;;;9.55;;
71152;SDS011;58822;51.438;5.436;2022-07-18T05:49:42;22.45;;;8.80;;
71152;SDS011;58822;51.438;5.436;2022-07-18T05:52:07;15.80;;;8.23;;
71152;SDS011;58822;51.438;5.436;2022-07-18T05:54:32;19.42;;;8.15;;
71152;SDS011;58822;51.438;5.436;2022-07-18T05:56:58;21.40;;;7.35;;
71152;SDS011;58822;51.438;5.436;2022-07-18T05:59:23;22.73;;;7.47;;
71152;SDS011;58822;51.438;5.436;2022-07-18T06:01:49;27.92;;;7.20;;
71152;SDS011;58822;51.438;5.436;2022-07-18T06:04:14;17.80;;;6.90;;
71152;SDS011;58822;51.438;5.436;2022-07-18T06:06:40;16.55;;;6.30;;
71152;SDS011;58822;51.438;5.436;2022-07-18T06:09:06;20.35;;;6.40;;
71152;SDS011;58822;51.438;5.436;2022-07-18T06:11:33;16.83;;;6.28;;
71152;SDS011;58822;51.438;5.436;2022-07-18T06:13:59;16.27;;;5.40;;
71152;SDS011;58822;51.438;5.436;2022-07-18T06:16:27;17.98;;;6.00;;
71152;SDS011;58822;51.438;5.436;2022-07-18T06:18:52;15.40;;;5.63;;
71152;SDS011;58822;51.438;5.436;2022-07-18T06:21:21;18.98;;;4.95;;
71152;SDS011;58822;51.438;5.436;2022-07-18T06:23:47;13.23;;;5.32;;
71152;SDS011;58822;51.438;5.436;2022-07-18T06:26:12;14.48;;;5.18;;
71152;SDS011;58822;51.438;5.436;2022-07-18T06:28:37;16.88;;;5.03;;
71152;SDS011;58822;51.438;5.436;2022-07-18T06:31:03;16.77;;;5.35;;
71152;SDS011;58822;51.438;5.436;2022-07-18T06:33:28;14.50;;;5.40;;
71152;SDS011;58822;51.438;5.436;2022-07-18T06:35:53;10.60;;;4.93;;
71152;SDS011;58822;51.438;5.436;2022-07-18T06:38:19;15.48;;;4.68;;
71152;SDS011;58822;51.438;5.436;2022-07-18T06:40:44;13.88;;;4.68;;
71152;SDS011;58822;51.438;5.436;2022-07-18T06:43:10;19.30;;;5.40;;
71152;SDS011;58822;51.438;5.436;2022-07-18T06:45:38;18.30;;;5.18;;
71152;SDS011;58822;51.438;5.436;2022-07-18T06:48:03;12.27;;;4.78;;
71152;SDS011;58822;51.438;5.436;2022-07-18T06:50:29;13.65;;;4.60;;
71152;SDS011;58822;51.438;5.436;2022-07-18T06:52:54;14.60;;;3.90;;
71152;SDS011;58822;51.438;5.436;2022-07-18T06:55:19;11.98;;;3.83;;
71152;SDS011;58822;51.438;5.436;2022-07-18T06:57:45;13.02;;;4.35;;
71152;SDS011;58822;51.438;5.436;2022-07-18T07:00:11;10.18;;;3.47;;
71152;SDS011;58822;51.438;5.436;2022-07-18T07:02:42;12.00;;;3.60;;
71152;SDS011;58822;51.438;5.436;2022-07-18T07:05:12;17.08;;;4.57;;
71152;SDS011;58822;51.438;5.436;2022-07-18T07:07:38;15.88;;;3.03;;
71152;SDS011;58822;51.438;5.436;2022-07-18T07:10:04;11.90;;;3.28;;
71152;SDS011;58822;51.438;5.436;2022-07-18T07:12:30;12.52;;;3.70;;
71152;SDS011;58822;51.438;5.436;2022-07-18T07:15:02;12.15;;;3.53;;
71152;SDS011;58822;51.438;5.436;2022-07-18T07:17:27;18.17;;;3.67;;
71152;SDS011;58822;51.438;5.436;2022-07-18T07:19:54;12.88;;;3.13;;
71152;SDS011;58822;51.438;5.436;2022-07-18T07:22:20;6.13;;;2.78;;
71152;SDS011;58822;51.438;5.436;2022-07-18T07:24:45;11.13;;;2.65;;
71152;SDS011;58822;51.438;5.436;2022-07-18T07:27:11;6.45;;;2.47;;
71152;SDS011;58822;51.438;5.436;2022-07-18T07:29:36;15.80;;;2.63;;
71152;SDS011;58822;51.438;5.436;2022-07-18T07:32:08;15.43;;;2.63;;
71152;SDS011;58822;51.438;5.436;2022-07-18T07:34:33;15.00;;;2.50;;
71152;SDS011;58822;51.438;5.436;2022-07-18T07:37:02;12.02;;;2.30;;
71152;SDS011;58822;51.438;5.436;2022-07-18T07:39:27;7.65;;;2.20;;
71152;SDS011;58822;51.438;5.436;2022-07-18T07:41:52;7.03;;;2.17;;
71152;SDS011;58822;51.438;5.436;2022-07-18T07:44:18;7.97;;;2.17;;
71152;SDS011;58822;51.438;5.436;2022-07-18T07:46:43;9.38;;;2.30;;
71152;SDS011;58822;51.438;5.436;2022-07-18T07:49:08;9.07;;;2.58;;
71152;SDS011;58822;51.438;5.436;2022-07-18T07:51:34;8.20;;;2.20;;
71152;SDS011;58822;51.438;5.436;2022-07-18T07:53:59;12.02;;;2.72;;
71152;SDS011;58822;51.438;5.436;2022-07-18T07:56:24;7.00;;;2.50;;
71152;SDS011;58822;51.438;5.436;2022-07-18T07:58:50;8.20;;;2.30;;
71152;SDS011;58822;51.438;5.436;2022-07-18T08:01:15;7.57;;;2.22;;
71152;SDS011;58822;51.438;5.436;2022-07-18T08:03:44;8.65;;;2.45;;
71152;SDS011;58822;51.438;5.436;2022-07-18T08:06:14;10.95;;;2.35;;
71152;SDS011;58822;51.438;5.436;2022-07-18T08:08:39;10.18;;;2.63;;
71152;SDS011;58822;51.438;5.436;2022-07-18T08:11:05;12.45;;;2.50;;
71152;SDS011;58822;51.438;5.436;2022-07-18T08:13:31;6.57;;;2.15;;
71152;SDS011;58822;51.438;5.436;2022-07-18T08:15:56;10.65;;;2.58;;
71152;SDS011;58822;51.438;5.436;2022-07-18T08:18:21;11.70;;;2.63;;
71152;SDS011;58822;51.438;5.436;2022-07-18T08:20:47;8.18;;;2.30;;
71152;SDS011;58822;51.438;5.436;2022-07-18T08:23:12;8.18;;;2.30;;
71152;SDS011;58822;51.438;5.436;2022-07-18T08:25:38;9.50;;;2.22;;
71152;SDS011;58822;51.438;5.436;2022-07-18T08:28:05;16.33;;;2.50;;
71152;SDS011;58822;51.438;5.436;2022-07-18T08:30:32;9.20;;;2.47;;
71152;SDS011;58822;51.438;5.436;2022-07-18T08:32:59;6.00;;;2.20;;
71152;SDS011;58822;51.438;5.436;2022-07-18T08:35:26;8.68;;;2.22;;
71152;SDS011;58822;51.438;5.436;2022-07-18T08:38:11;10.38;;;2.67;;
71152;SDS011;58822;51.438;5.436;2022-07-18T08:40:37;8.98;;;2.40;;
71152;SDS011;58822;51.438;5.436;2022-07-18T08:43:03;7.35;;;2.10;;
71152;SDS011;58822;51.438;5.436;2022-07-18T08:45:28;16.27;;;3.33;;
71152;SDS011;58822;51.438;5.436;2022-07-18T08:47:54;15.23;;;2.33;;
71152;SDS011;58822;51.438;5.436;2022-07-18T08:50:19;11.02;;;2.25;;
71152;SDS011;58822;51.438;5.436;2022-07-18T08:52:45;4.43;;;2.10;;
71152;SDS011;58822;51.438;5.436;2022-07-18T08:55:13;10.07;;;2.03;;
71152;SDS011;58822;51.438;5.436;2022-07-18T08:57:39;4.90;;;2.20;;
71152;SDS011;58822;51.438;5.436;2022-07-18T09:00:06;6.78;;;2.03;;
71152;SDS011;58822;51.438;5.436;2022-07-18T09:02:36;8.05;;;2.40;;
71152;SDS011;58822;51.438;5.436;2022-07-18T09:05:03;11.07;;;2.17;;
71152;SDS011;58822;51.438;5.436;2022-07-18T09:07:31;24.42;;;2.45;;
71152;SDS011;58822;51.438;5.436;2022-07-18T09:10:00;8.05;;;1.92;;
71152;SDS011;58822;51.438;5.436;2022-07-18T09:12:28;9.95;;;2.28;;
71152;SDS011;58822;51.438;5.436;2022-07-18T09:14:56;16.75;;;2.42;;
71152;SDS011;58822;51.438;5.436;2022-07-18T09:17:22;11.25;;;2.13;;
71152;SDS011;58822;51.438;5.436;2022-07-18T09:20:09;8.60;;;2.40;;
71152;SDS011;58822;51.438;5.436;2022-07-18T09:22:42;10.10;;;1.98;;
71152;SDS011;58822;51.438;5.436;2022-07-18T09:25:16;3.63;;;2.03;;
71152;SDS011;58822;51.438;5.436;2022-07-18T09:27:50;11.40;;;2.60;;
71152;SDS011;58822;51.438;5.436;2022-07-18T09:38:10;9.60;;;2.30;;
71152;SDS011;58822;51.438;5.436;2022-07-18T09:40:43;11.93;;;2.03;;
71152;SDS011;58822;51.438;5.436;2022-07-18T09:43:18;6.70;;;2.15;;
71152;SDS011;58822;51.438;5.436;2022-07-18T09:48:20;7.07;;;2.13;;
71152;SDS011;58822;51.438;5.436;2022-07-18T09:50:54;5.28;;;2.13;;
71152;SDS011;58822;51.438;5.436;2022-07-18T09:53:29;12.70;;;2.13;;
71152;SDS011;58822;51.438;5.436;2022-07-18T09:55:57;11.25;;;2.00;;
71152;SDS011;58822;51.438;5.436;2022-07-18T09:58:27;13.32;;;2.40;;
71152;SDS011;58822;51.438;5.436;2022-07-18T10:00:56;9.32;;;2.00;;
71152;SDS011;58822;51.438;5.436;2022-07-18T10:03:23;7.43;;;2.22;;
71152;SDS011;58822;51.438;5.436;2022-07-18T10:05:50;10.45;;;2.45;;
71152;SDS011;58822;51.438;5.436;2022-07-18T10:08:18;9.98;;;2.03;;
71152;SDS011;58822;51.438;5.436;2022-07-18T10:10:48;7.90;;;2.10;;
71152;SDS011;58822;51.438;5.436;2022-07-18T10:13:15;6.95;;;1.98;;
71152;SDS011;58822;51.438;5.436;2022-07-18T10:15:42;14.07;;;2.00;;
71152;SDS011;58822;51.438;5.436;2022-07-18T10:18:10;8.23;;;1.98;;
71152;SDS011;58822;51.438;5.436;2022-07-18T10:20:39;6.55;;;1.95;;
71152;SDS011;58822;51.438;5.436;2022-07-18T10:23:17;5.75;;;2.10;;
71152;SDS011;58822;51.438;5.436;2022-07-18T10:25:44;10.75;;;2.33;;
71152;SDS011;58822;51.438;5.436;2022-07-18T10:31:30;6.75;;;1.85;;
71152;SDS011;58822;51.438;5.436;2022-07-18T10:36:33;3.80;;;1.65;;
71152;SDS011;58822;51.438;5.436;2022-07-18T10:39:07;7.63;;;2.08;;
71152;SDS011;58822;51.438;5.436;2022-07-18T10:44:31;9.57;;;2.13;;
71152;SDS011;58822;51.438;5.436;2022-07-18T10:52:54;9.25;;;2.10;;
71152;SDS011;58822;51.438;5.436;2022-07-18T11:00:15;4.75;;;1.77;;
71152;SDS011;58822;51.438;5.436;2022-07-18T11:02:43;7.50;;;2.00;;
71152;SDS011;58822;51.438;5.436;2022-07-18T11:15:56;4.95;;;2.00;;
71152;SDS011;58822;51.438;5.436;2022-07-18T11:23:44;6.80;;;2.00;;
71152;SDS011;58822;51.438;5.436;2022-07-18T11:26:16;5.55;;;1.77;;
71152;SDS011;58822;51.438;5.436;2022-07-18T11:28:43;5.45;;;1.90;;
71152;SDS011;58822;51.438;5.436;2022-07-18T11:31:11;4.35;;;2.05;;
71152;SDS011;58822;51.438;5.436;2022-07-18T11:33:39;11.25;;;2.05;;
71152;SDS011;58822;51.438;5.436;2022-07-18T11:36:08;5.88;;;1.90;;
71152;SDS011;58822;51.438;5.436;2022-07-18T11:38:36;7.47;;;1.80;;
71152;SDS011;58822;51.438;5.436;2022-07-18T11:41:03;7.13;;;2.13;;
71152;SDS011;58822;51.438;5.436;2022-07-18T11:43:31;8.70;;;2.15;;
71152;SDS011;58822;51.438;5.436;2022-07-18T11:46:00;7.47;;;2.20;;
71152;SDS011;58822;51.438;5.436;2022-07-18T11:48:31;5.40;;;1.90;;
71152;SDS011;58822;51.438;5.436;2022-07-18T11:50:57;5.63;;;2.00;;
71152;SDS011;58822;51.438;5.436;2022-07-18T11:53:23;6.03;;;1.95;;
71152;SDS011;58822;51.438;5.436;2022-07-18T11:55:52;8.73;;;2.25;;
71152;SDS011;58822;51.438;5.436;2022-07-18T11:58:18;8.13;;;2.00;;
71152;SDS011;58822;51.438;5.436;2022-07-18T12:00:44;3.85;;;1.92;;
71152;SDS011;58822;51.438;5.436;2022-07-18T12:03:14;5.72;;;2.05;;
71152;SDS011;58822;51.438;5.436;2022-07-18T12:08:33;4.65;;;1.98;;
71152;SDS011;58822;51.438;5.436;2022-07-18T12:18:51;3.45;;;1.90;;
71152;SDS011;58822;51.438;5.436;2022-07-18T12:21:18;5.72;;;1.75;;
71152;SDS011;58822;51.438;5.436;2022-07-18T12:23:43;4.22;;;1.88;;
71152;SDS011;58822;51.438;5.436;2022-07-18T12:26:09;8.50;;;1.70;;
71152;SDS011;58822;51.438;5.436;2022-07-18T12:29:02;3.90;;;1.75;;
71152;SDS011;58822;51.438;5.436;2022-07-18T12:31:39;4.35;;;1.65;;
71152;SDS011;58822;51.438;5.436;2022-07-18T12:34:12;2.90;;;1.70;;
71152;SDS011;58822;51.438;5.436;2022-07-18T12:36:51;6.18;;;1.92;;
71152;SDS011;58822;51.438;5.436;2022-07-18T12:39:25;4.80;;;1.95;;
71152;SDS011;58822;51.438;5.436;2022-07-18T12:41:54;3.70;;;1.80;;
71152;SDS011;58822;51.438;5.436;2022-07-18T12:44:21;10.02;;;1.92;;
71152;SDS011;58822;51.438;5.436;2022-07-18T12:46:46;6.25;;;1.92;;
71152;SDS011;58822;51.438;5.436;2022-07-18T12:49:12;11.90;;;2.42;;
71152;SDS011;58822;51.438;5.436;2022-07-18T12:51:38;5.78;;;2.05;;
71152;SDS011;58822;51.438;5.436;2022-07-18T12:54:06;5.68;;;2.05;;
71152;SDS011;58822;51.438;5.436;2022-07-18T12:56:34;4.47;;;1.90;;
71152;SDS011;58822;51.438;5.436;2022-07-18T12:59:00;5.50;;;1.90;;
71152;SDS011;58822;51.438;5.436;2022-07-18T13:01:26;3.38;;;1.67;;
71152;SDS011;58822;51.438;5.436;2022-07-18T13:03:51;3.83;;;1.90;;
71152;SDS011;58822;51.438;5.436;2022-07-18T13:06:16;4.20;;;2.00;;
71152;SDS011;58822;51.438;5.436;2022-07-18T13:08:42;8.95;;;1.92;;
71152;SDS011;58822;51.438;5.436;2022-07-18T13:11:07;5.93;;;1.80;;
71152;SDS011;58822;51.438;5.436;2022-07-18T13:13:35;3.88;;;1.83;;
71152;SDS011;58822;51.438;5.436;2022-07-18T13:16:01;5.95;;;1.90;;
71152;SDS011;58822;51.438;5.436;2022-07-18T13:18:26;7.32;;;1.80;;
71152;SDS011;58822;51.438;5.436;2022-07-18T13:20:52;5.63;;;2.03;;
71152;SDS011;58822;51.438;5.436;2022-07-18T13:23:20;7.75;;;2.38;;
71152;SDS011;58822;51.438;5.436;2022-07-18T13:25:45;8.13;;;1.92;;
71152;SDS011;58822;51.438;5.436;2022-07-18T13:28:11;6.57;;;1.95;;
71152;SDS011;58822;51.438;5.436;2022-07-18T13:30:36;6.32;;;1.80;;
71152;SDS011;58822;51.438;5.436;2022-07-18T13:33:03;4.75;;;1.83;;
71152;SDS011;58822;51.438;5.436;2022-07-18T13:35:29;5.15;;;1.77;;
71152;SDS011;58822;51.438;5.436;2022-07-18T13:37:54;6.20;;;1.95;;
71152;SDS011;58822;51.438;5.436;2022-07-18T13:40:20;9.68;;;2.30;;
71152;SDS011;58822;51.438;5.436;2022-07-18T13:42:45;6.40;;;1.90;;
71152;SDS011;58822;51.438;5.436;2022-07-18T13:45:11;3.97;;;1.88;;
71152;SDS011;58822;51.438;5.436;2022-07-18T13:47:38;4.05;;;1.80;;
71152;SDS011;58822;51.438;5.436;2022-07-18T13:50:06;8.32;;;2.10;;
71152;SDS011;58822;51.438;5.436;2022-07-18T13:52:32;7.47;;;2.00;;
71152;SDS011;58822;51.438;5.436;2022-07-18T13:54:58;6.03;;;1.80;;
71152;SDS011;58822;51.438;5.436;2022-07-18T13:57:23;5.63;;;1.75;;
71152;SDS011;58822;51.438;5.436;2022-07-18T13:59:51;7.80;;;1.85;;
71152;SDS011;58822;51.438;5.436;2022-07-18T14:02:17;5.78;;;1.88;;
71152;SDS011;58822;51.438;5.436;2022-07-18T14:04:43;9.80;;;1.58;;
71152;SDS011;58822;51.438;5.436;2022-07-18T14:07:08;3.80;;;1.80;;
71152;SDS011;58822;51.438;5.436;2022-07-18T14:12:02;5.55;;;2.00;;
71152;SDS011;58822;51.438;5.436;2022-07-18T14:14:27;4.95;;;2.15;;
71152;SDS011;58822;51.438;5.436;2022-07-18T14:16:52;4.00;;;1.80;;
71152;SDS011;58822;51.438;5.436;2022-07-18T14:19:18;4.47;;;1.45;;
71152;SDS011;58822;51.438;5.436;2022-07-18T14:21:45;3.28;;;1.73;;
71152;SDS011;58822;51.438;5.436;2022-07-18T14:24:10;3.33;;;1.90;;
71152;SDS011;58822;51.438;5.436;2022-07-18T14:26:36;3.08;;;1.80;;
71152;SDS011;58822;51.438;5.436;2022-07-18T14:29:01;4.15;;;2.05;;
71152;SDS011;58822;51.438;5.436;2022-07-18T14:31:27;5.78;;;1.85;;
71152;SDS011;58822;51.438;5.436;2022-07-18T14:33:52;7.60;;;1.90;;
71152;SDS011;58822;51.438;5.436;2022-07-18T14:36:18;3.00;;;1.60;;
71152;SDS011;58822;51.438;5.436;2022-07-18T14:38:43;7.80;;;1.50;;
71152;SDS011;58822;51.438;5.436;2022-07-18T14:41:09;10.30;;;1.58;;
71152;SDS011;58822;51.438;5.436;2022-07-18T14:43:34;7.03;;;1.77;;
71152;SDS011;58822;51.438;5.436;2022-07-18T14:45:59;2.70;;;1.80;;
71152;SDS011;58822;51.438;5.436;2022-07-18T14:48:27;5.20;;;2.00;;
71152;SDS011;58822;51.438;5.436;2022-07-18T14:50:53;5.07;;;1.90;;
71152;SDS011;58822;51.438;5.436;2022-07-18T14:53:18;2.70;;;1.52;;
71152;SDS011;58822;51.438;5.436;2022-07-18T14:55:43;3.00;;;1.90;;
71152;SDS011;58822;51.438;5.436;2022-07-18T14:58:09;4.35;;;1.98;;
71152;SDS011;58822;51.438;5.436;2022-07-18T15:00:35;4.72;;;1.70;;
71152;SDS011;58822;51.438;5.436;2022-07-18T15:03:00;3.65;;;1.65;;
71152;SDS011;58822;51.438;5.436;2022-07-18T15:05:25;7.75;;;1.77;;
71152;SDS011;58822;51.438;5.436;2022-07-18T15:07:51;1.88;;;1.50;;
71152;SDS011;58822;51.438;5.436;2022-07-18T15:10:16;5.95;;;1.90;;
71152;SDS011;58822;51.438;5.436;2022-07-18T15:12:42;3.13;;;1.50;;
71152;SDS011;58822;51.438;5.436;2022-07-18T15:15:07;4.93;;;1.60;;
71152;SDS011;58822;51.438;5.436;2022-07-18T15:17:34;4.05;;;1.85;;
71152;SDS011;58822;51.438;5.436;2022-07-18T15:20:05;3.13;;;1.80;;
71152;SDS011;58822;51.438;5.436;2022-07-18T15:22:31;3.05;;;1.50;;
71152;SDS011;58822;51.438;5.436;2022-07-18T15:24:57;7.00;;;1.85;;
71152;SDS011;58822;51.438;5.436;2022-07-18T15:27:22;5.20;;;1.90;;
71152;SDS011;58822;51.438;5.436;2022-07-18T15:29:48;3.22;;;1.77;;
71152;SDS011;58822;51.438;5.436;2022-07-18T15:32:13;2.97;;;1.73;;
71152;SDS011;58822;51.438;5.436;2022-07-18T15:34:39;7.50;;;1.88;;
71152;SDS011;58822;51.438;5.436;2022-07-18T15:37:10;6.72;;;1.80;;
71152;SDS011;58822;51.438;5.436;2022-07-18T15:39:36;24.30;;;2.50;;